Time;durP1;ratioP1;P1;durP2;ratioP2;P2;SDS_P1;SDS_P2;PMS_P1;PMS_P2;Temp;Humidity;BMP_temperature;BMP_pressure;BME280_temperature;BME280_humidity;BME280_pressure;Samples;Min_cycle;Max_cycle;Signal;HPM_P1;HPM_P2
2022/08/06 00:01:35;;;;;;;5.93;5.50;;;;;;;24.15;100.00;99465.50;5004890;28;20046;-79
2022/08/06 00:04:01;;;;;;;4.90;4.50;;;;;;;24.02;100.00;99467.38;5004928;28;20030;-81
2022/08/06 00:06:27;;;;;;;6.13;4.25;;;;;;;23.92;100.00;99460.88;5006233;28;20034;-80
2022/08/06 00:08:53;;;;;;;4.30;3.92;;;;;;;23.91;100.00;99465.47;5008507;28;20399;-82
2022/08/06 00:11:18;;;;;;;6.20;4.72;;;;;;;23.97;100.00;99464.53;5005481;28;20039;-81
2022/08/06 00:13:44;;;;;;;6.85;5.20;;;;;;;23.99;100.00;99467.81;5007795;28;20034;-78
2022/08/06 00:16:14;;;;;;;5.07;4.70;;;;;;;24.01;100.00;99459.50;5001425;28;20038;-81
2022/08/06 00:18:40;;;;;;;4.25;3.80;;;;;;;24.04;100.00;99457.16;5008868;28;20041;-82
2022/08/06 00:21:06;;;;;;;4.97;4.00;;;;;;;24.00;100.00;99458.69;5005861;28;20042;-82
2022/08/06 00:23:31;;;;;;;5.30;3.83;;;;;;;24.05;100.00;99461.50;5009783;28;20041;-83
2022/08/06 00:25:57;;;;;;;4.38;4.07;;;;;;;24.11;100.00;99469.69;5011917;28;20044;-83
2022/08/06 00:28:24;;;;;;;5.43;4.80;;;;;;;24.12;100.00;99465.97;5014683;28;20101;-83
2022/08/06 00:30:50;;;;;;;4.57;4.20;;;;;;;24.06;100.00;99463.16;5015416;28;20069;-82
2022/08/06 00:33:15;;;;;;;5.28;4.78;;;;;;;24.03;100.00;99460.09;5012172;28;20030;-82
2022/08/06 00:35:42;;;;;;;4.65;4.28;;;;;;;23.98;100.00;99460.78;5010867;28;20084;-83
2022/08/06 00:38:08;;;;;;;4.78;4.35;;;;;;;23.86;100.00;99457.22;5013874;28;20038;-84
2022/08/06 00:40:33;;;;;;;5.82;4.82;;;;;;;23.74;100.00;99456.38;5008229;28;20045;-82
2022/08/06 00:43:01;;;;;;;5.38;4.80;;;;;;;23.48;100.00;99456.78;5010987;28;20058;-83
2022/08/06 00:45:26;;;;;;;5.22;4.80;;;;;;;23.42;100.00;99457.66;5014091;28;20445;-84
2022/08/06 00:47:52;;;;;;;5.00;4.60;;;;;;;23.43;100.00;99467.38;5004729;28;20372;-82
2022/08/06 00:50:18;;;;;;;5.60;5.13;;;;;;;23.45;100.00;99465.28;5008686;28;20081;-82
2022/08/06 00:52:45;;;;;;;5.85;4.78;;;;;;;23.51;100.00;99461.69;5008523;28;20049;-82
2022/08/06 00:55:12;;;;;;;6.80;4.35;;;;;;;23.50;100.00;99466.25;5008200;28;20030;-81
2022/08/06 00:57:38;;;;;;;5.82;4.95;;;;;;;23.51;100.00;99454.44;5006116;28;20043;-82
2022/08/06 01:00:05;;;;;;;7.25;4.80;;;;;;;23.56;100.00;99456.47;5008893;28;20117;-82
2022/08/06 01:02:32;;;;;;;5.13;4.72;;;;;;;23.60;100.00;99452.25;5003961;28;20038;-80
2022/08/06 01:04:58;;;;;;;5.18;4.60;;;;;;;23.63;100.00;99463.38;5004094;28;20046;-80
2022/08/06 01:07:23;;;;;;;8.93;4.57;;;;;;;23.66;100.00;99462.13;5005479;28;20041;-79
2022/08/06 01:09:49;;;;;;;4.82;4.43;;;;;;;23.64;100.00;99461.50;5006380;28;20057;-79
2022/08/06 01:12:15;;;;;;;4.60;4.20;;;;;;;23.61;100.00;99459.28;5007394;28;20026;-79
2022/08/06 01:14:41;;;;;;;5.68;4.60;;;;;;;23.55;100.00;99454.81;5012299;28;20022;-81
2022/08/06 01:17:34;;;;;;;4.43;4.03;;;;;;;23.51;100.00;99453.63;5008789;28;20039;-81
2022/08/06 01:20:22;;;;;;;5.53;4.20;;;;;;;23.50;100.00;99449.31;5000541;28;20042;-80
2022/08/06 01:23:02;;;;;;;6.85;5.03;;;;;;;23.50;100.00;99452.00;4998415;28;20042;-81
2022/08/06 01:25:46;;;;;;;4.43;4.13;;;;;;;23.44;100.00;99450.19;5004029;28;20105;-81
2022/08/06 01:28:24;;;;;;;5.00;4.57;;;;;;;23.28;100.00;99463.22;4998950;28;20040;-80
2022/08/06 01:30:58;;;;;;;8.65;4.55;;;;;;;23.06;100.00;99459.38;5001199;28;20051;-82
2022/08/06 01:33:32;;;;;;;5.20;4.40;;;;;;;22.84;100.00;99452.81;5005041;28;20026;-82
2022/08/06 01:36:04;;;;;;;4.95;4.45;;;;;;;22.75;100.00;99454.13;5004509;28;20084;-81
2022/08/06 01:38:37;;;;;;;8.68;4.82;;;;;;;22.66;100.00;99460.84;5004403;28;20033;-81
2022/08/06 01:41:10;;;;;;;5.20;4.40;;;;;;;22.64;100.00;99462.91;5005117;28;20130;-81
2022/08/06 01:43:38;;;;;;;4.60;4.22;;;;;;;22.70;100.00;99467.41;5003565;28;20034;-81
2022/08/06 01:46:06;;;;;;;7.03;4.30;;;;;;;22.76;100.00;99474.59;5004656;28;20034;-81
2022/08/06 01:48:34;;;;;;;5.22;4.72;;;;;;;22.82;100.00;99474.53;5003314;28;20033;-81
2022/08/06 01:51:02;;;;;;;5.30;4.63;;;;;;;22.86;100.00;99475.72;5003124;28;20042;-82
2022/08/06 01:53:35;;;;;;;6.18;4.63;;;;;;;22.90;100.00;99473.44;5005030;28;20046;-82
2022/08/06 01:56:04;;;;;;;4.15;3.85;;;;;;;22.91;100.00;99480.47;5002270;28;20501;-81
2022/08/06 01:58:38;;;;;;;4.80;4.40;;;;;;;22.92;100.00;99476.69;5002341;28;20030;-81
2022/08/06 02:01:10;;;;;;;5.20;4.70;;;;;;;22.82;100.00;99476.41;5005289;28;20038;-81
2022/08/06 02:03:40;;;;;;;5.28;4.78;;;;;;;22.70;100.00;99484.38;5001636;28;20030;-81
2022/08/06 02:06:07;;;;;;;4.85;4.47;;;;;;;22.58;100.00;99479.94;5001615;28;20109;-81
2022/08/06 02:08:35;;;;;;;5.85;5.00;;;;;;;22.58;100.00;99485.31;5001925;28;20058;-81
2022/08/06 02:11:03;;;;;;;6.97;4.93;;;;;;;22.63;100.00;99483.59;5002112;28;20485;-81
2022/08/06 02:13:33;;;;;;;5.03;4.65;;;;;;;22.61;100.00;99490.25;5000865;28;20035;-81
2022/08/06 02:16:01;;;;;;;5.63;5.20;;;;;;;22.38;100.00;99496.28;5002342;28;20494;-81
2022/08/06 02:18:31;;;;;;;5.85;5.30;;;;;;;22.26;100.00;99496.16;5000836;28;20491;-81
2022/08/06 02:21:00;;;;;;;6.28;5.68;;;;;;;22.22;100.00;99497.63;5002119;28;20521;-81
2022/08/06 02:23:28;;;;;;;6.22;5.30;;;;;;;22.29;100.00;99498.41;5001374;28;20538;-81
2022/08/06 02:25:54;;;;;;;5.85;5.35;;;;;;;22.40;100.00;99495.00;5001943;28;20501;-81
2022/08/06 02:28:23;;;;;;;5.35;4.82;;;;;;;22.52;100.00;99496.94;5000833;28;20524;-81
2022/08/06 02:30:52;;;;;;;6.10;5.68;;;;;;;22.58;100.00;99496.06;5003742;28;20564;-81
2022/08/06 02:33:18;;;;;;;6.60;6.07;;;;;;;22.58;100.00;99490.69;5000009;28;20443;-81
2022/08/06 02:35:50;;;;;;;6.38;5.75;;;;;;;22.56;100.00;99498.19;5002688;28;20548;-80
2022/08/06 02:38:24;;;;;;;6.05;5.55;;;;;;;22.48;100.00;99487.69;4996304;28;20057;-80
2022/08/06 02:40:56;;;;;;;6.50;5.90;;;;;;;22.49;100.00;99487.47;4995582;28;20045;-81
2022/08/06 02:43:36;;;;;;;7.38;5.95;;;;;;;22.59;100.00;99493.16;5003043;28;20026;-81
2022/08/06 02:46:23;;;;;;;10.73;6.07;;;;;;;22.66;100.00;99493.09;5002604;28;20038;-81
2022/08/06 02:49:12;;;;;;;7.30;6.60;;;;;;;22.64;100.00;99487.13;5003537;28;20159;-81
2022/08/06 02:51:48;;;;;;;6.00;5.50;;;;;;;22.64;100.00;99479.03;5003097;28;20077;-80
2022/08/06 02:54:24;;;;;;;6.30;5.60;;;;;;;22.68;100.00;99483.75;4996231;28;20027;-80
2022/08/06 02:56:51;;;;;;;5.95;5.55;;;;;;;22.76;100.00;99493.44;4997659;28;20042;-81
2022/08/06 02:59:24;;;;;;;5.68;5.25;;;;;;;22.85;100.00;99492.13;4999902;28;20434;-80
2022/08/06 03:01:56;;;;;;;5.65;5.22;;;;;;;22.94;100.00;99490.75;4997484;28;20034;-81
2022/08/06 03:04:25;;;;;;;5.50;5.03;;;;;;;23.01;100.00;99491.50;5003287;28;20034;-81
2022/08/06 03:06:52;;;;;;;5.80;5.32;;;;;;;23.06;100.00;99488.13;5003106;28;20120;-80
2022/08/06 03:09:21;;;;;;;5.50;5.00;;;;;;;23.09;100.00;99491.19;4997847;28;20089;-81
2022/08/06 03:11:48;;;;;;;6.40;5.03;;;;;;;23.11;100.00;99491.81;5005788;28;20446;-81
2022/08/06 03:14:19;;;;;;;6.20;5.70;;;;;;;23.13;100.00;99489.72;4999605;28;20402;-81
2022/08/06 03:16:46;;;;;;;5.75;5.18;;;;;;;23.07;100.00;99492.47;5001522;28;20037;-81
2022/08/06 03:19:13;;;;;;;5.97;5.32;;;;;;;22.98;100.00;99489.25;5003552;28;20106;-81
2022/08/06 03:21:41;;;;;;;7.22;5.88;;;;;;;22.94;100.00;99485.38;5006362;28;20042;-81
2022/08/06 03:24:08;;;;;;;5.97;5.45;;;;;;;22.95;100.00;99492.41;5005737;28;20037;-81
2022/08/06 03:26:36;;;;;;;6.30;5.70;;;;;;;22.91;100.00;99502.00;5004715;28;20025;-82
2022/08/06 03:29:02;;;;;;;5.72;5.25;;;;;;;22.93;100.00;99493.66;5005740;28;20066;-82
2022/08/06 03:31:29;;;;;;;6.43;5.80;;;;;;;22.94;100.00;99489.94;5004080;28;20504;-80
2022/08/06 03:33:55;;;;;;;6.15;5.65;;;;;;;22.87;100.00;99490.00;5006080;28;20038;-82
2022/08/06 03:36:23;;;;;;;5.85;5.43;;;;;;;22.80;100.00;99494.63;5004202;28;20026;-82
2022/08/06 03:38:56;;;;;;;5.43;5.00;;;;;;;22.76;100.00;99504.19;5006722;28;20042;-82
2022/08/06 03:41:25;;;;;;;6.53;5.20;;;;;;;22.69;100.00;99498.84;5003873;28;20165;-81
2022/08/06 03:43:51;;;;;;;5.70;5.30;;;;;;;22.60;100.00;99504.75;5006729;28;20079;-81
2022/08/06 03:46:24;;;;;;;5.60;5.07;;;;;;;22.54;100.00;99493.00;5002978;28;20027;-81
2022/08/06 03:48:52;;;;;;;7.38;5.32;;;;;;;22.55;100.00;99491.97;5001069;28;20161;-81
2022/08/06 03:51:22;;;;;;;6.28;5.30;;;;;;;22.55;100.00;99496.53;5004605;28;20045;-80
2022/08/06 03:53:50;;;;;;;5.82;5.13;;;;;;;22.43;100.00;99499.94;5003028;28;20044;-81
2022/08/06 03:56:22;;;;;;;5.68;5.18;;;;;;;22.39;100.00;99493.34;5006357;28;20478;-80
2022/08/06 03:58:50;;;;;;;5.90;4.90;;;;;;;22.18;100.00;99507.19;5000667;28;20037;-81
2022/08/06 04:01:23;;;;;;;6.78;4.78;;;;;;;22.23;100.00;99501.97;5006661;28;20041;-81
2022/08/06 04:03:50;;;;;;;6.78;4.88;;;;;;;22.18;100.00;99501.81;5000789;28;20482;-81
2022/08/06 04:06:19;;;;;;;5.65;5.15;;;;;;;22.19;100.00;99503.47;5002380;28;20030;-81
2022/08/06 04:08:45;;;;;;;8.98;5.10;;;;;;;22.15;100.00;99496.84;4999716;28;20026;-81
2022/08/06 04:11:12;;;;;;;5.72;5.32;;;;;;;22.16;100.00;99492.31;5006329;28;20030;-81
2022/08/06 04:13:39;;;;;;;5.07;4.72;;;;;;;22.18;100.00;99495.59;5002610;28;20151;-81
2022/08/06 04:16:06;;;;;;;7.45;4.80;;;;;;;22.15;100.00;99496.84;5004087;28;20038;-81
2022/08/06 04:18:37;;;;;;;6.70;5.00;;;;;;;22.06;100.00;99500.88;5004268;28;20030;-80
2022/08/06 04:21:07;;;;;;;5.35;4.93;;;;;;;22.00;100.00;99509.78;5002710;28;20418;-81
2022/08/06 04:23:33;;;;;;;5.72;5.22;;;;;;;21.99;100.00;99502.75;5008073;28;20386;-82
2022/08/06 04:26:02;;;;;;;5.22;4.82;;;;;;;22.01;100.00;99508.75;5003611;28;20104;-81
2022/08/06 04:28:30;;;;;;;5.07;4.55;;;;;;;22.07;100.00;99510.56;5005580;28;20068;-81
2022/08/06 04:30:58;;;;;;;7.07;4.25;;;;;;;22.11;100.00;99511.78;5006471;28;20076;-81
2022/08/06 04:33:25;;;;;;;5.43;4.72;;;;;;;22.13;100.00;99507.00;5003676;28;20069;-81
2022/08/06 04:35:52;;;;;;;5.78;4.40;;;;;;;22.14;100.00;99508.66;5007237;28;20034;-79
2022/08/06 04:38:21;;;;;;;3.88;3.63;;;;;;;22.13;100.00;99509.72;5005452;28;20026;-81
2022/08/06 04:40:47;;;;;;;4.20;3.90;;;;;;;22.08;100.00;99511.41;5006741;28;20047;-80
2022/08/06 04:43:14;;;;;;;5.22;4.40;;;;;;;21.99;100.00;99519.72;5001891;28;20034;-81
2022/08/06 04:45:41;;;;;;;4.25;3.85;;;;;;;21.93;100.00;99522.41;5007207;28;20030;-81
2022/08/06 04:48:11;;;;;;;4.43;4.13;;;;;;;21.94;100.00;99526.75;5010308;28;20390;-82
2022/08/06 04:50:38;;;;;;;4.55;4.25;;;;;;;21.95;100.00;99533.81;5009957;28;20088;-82
2022/08/06 04:53:09;;;;;;;8.02;4.07;;;;;;;21.96;100.00;99535.47;5008729;28;20026;-82
2022/08/06 04:55:36;;;;;;;5.30;4.10;;;;;;;22.01;100.00;99533.75;5011377;28;20030;-82
2022/08/06 04:58:04;;;;;;;7.40;4.25;;;;;;;22.05;100.00;99536.81;5005280;28;20398;-81
2022/08/06 05:00:35;;;;;;;4.32;4.03;;;;;;;22.10;100.00;99541.53;5008031;28;20057;-81
2022/08/06 05:03:01;;;;;;;6.95;4.10;;;;;;;22.17;100.00;99543.16;5006215;28;20097;-80
2022/08/06 05:05:31;;;;;;;4.30;4.00;;;;;;;22.16;100.00;99546.88;5004613;28;20438;-81
2022/08/06 05:07:59;;;;;;;4.03;3.72;;;;;;;22.19;100.00;99551.84;5009545;28;20038;-80
2022/08/06 05:10:33;;;;;;;4.43;3.65;;;;;;;22.20;100.00;99550.81;5004767;28;20759;-80
2022/08/06 05:13:01;;;;;;;3.75;3.45;;;;;;;22.21;100.00;99547.03;5011298;28;20469;-81
2022/08/06 05:15:34;;;;;;;4.93;4.43;;;;;;;22.25;100.00;99564.41;5010955;28;20125;-82
2022/08/06 05:18:26;;;;;;;6.35;4.00;;;;;;;22.20;100.00;99564.22;5011794;28;20377;-82
2022/08/06 05:20:54;;;;;;;4.95;4.15;;;;;;;22.04;100.00;99564.72;5008495;28;20093;-81
2022/08/06 05:23:35;;;;;;;5.10;4.60;;;;;;;22.07;100.00;99564.31;5011983;28;20080;-81
2022/08/06 05:26:01;;;;;;;4.68;4.38;;;;;;;22.10;100.00;99563.88;5009746;28;20030;-81
2022/08/06 05:28:27;;;;;;;5.05;4.65;;;;;;;22.13;100.00;99574.19;5008786;28;20026;-82
2022/08/06 05:30:52;;;;;;;4.55;4.25;;;;;;;22.14;100.00;99581.22;5008263;28;20040;-81
2022/08/06 05:33:26;;;;;;;4.65;4.25;;;;;;;22.15;100.00;99572.09;5010973;28;20033;-81
2022/08/06 05:35:52;;;;;;;5.15;4.57;;;;;;;22.03;100.00;99573.88;5005386;28;20034;-82
2022/08/06 05:38:18;;;;;;;5.13;4.68;;;;;;;22.04;100.00;99578.16;5010508;28;20045;-81
2022/08/06 05:40:44;;;;;;;6.05;4.78;;;;;;;22.04;100.00;99573.63;5012470;28;20478;-81
2022/08/06 05:43:10;;;;;;;7.00;5.20;;;;;;;22.08;100.00;99579.41;5004452;28;20022;-82
2022/08/06 05:45:40;;;;;;;8.52;4.82;;;;;;;22.13;100.00;99586.81;5007707;28;20038;-82
2022/08/06 05:48:06;;;;;;;5.65;5.05;;;;;;;22.04;100.00;99580.84;5013016;28;20030;-82
2022/08/06 05:50:37;;;;;;;6.00;5.50;;;;;;;21.92;100.00;99585.25;5006952;28;20034;-82
2022/08/06 05:53:18;;;;;;;6.05;5.50;;;;;;;21.92;100.00;99582.53;5017923;28;20072;-82
2022/08/06 05:55:51;;;;;;;6.70;6.07;;;;;;;21.82;100.00;99583.03;5015707;28;20065;-82
2022/08/06 05:58:41;;;;;;;6.00;5.60;;;;;;;21.76;100.00;99588.44;5005668;28;20053;-81
2022/08/06 06:01:08;;;;;;;6.05;5.53;;;;;;;21.75;100.00;99590.28;5015201;28;20121;-82
2022/08/06 06:03:37;;;;;;;8.35;6.18;;;;;;;21.71;100.00;99590.94;5015396;28;20033;-82
2022/08/06 06:06:03;;;;;;;6.65;5.95;;;;;;;21.74;100.00;99585.13;5004942;28;20034;-82
2022/08/06 06:08:29;;;;;;;5.97;5.40;;;;;;;21.79;100.00;99593.38;5015385;28;20454;-82
2022/08/06 06:10:56;;;;;;;7.80;6.60;;;;;;;21.86;100.00;99583.41;5007212;28;20470;-80
2022/08/06 06:13:23;;;;;;;7.50;6.22;;;;;;;21.92;100.00;99587.91;4981573;28;20125;-82
2022/08/06 06:15:58;;;;;;;6.55;5.95;;;;;;;22.01;100.00;99592.06;5005690;28;20121;-80
2022/08/06 06:18:48;;;;;;;6.88;6.28;;;;;;;22.07;100.00;99591.19;5002976;28;20563;-82
2022/08/06 06:21:24;;;;;;;6.77;6.27;;;;;;;22.19;100.00;99589.47;4997627;28;20053;-83
2022/08/06 06:24:08;;;;;;;7.60;6.60;;;;;;;22.34;100.00;99589.97;5002196;28;20117;-81
2022/08/06 06:26:54;;;;;;;6.65;6.05;;;;;;;22.48;100.00;99597.94;5003047;28;20026;-83
2022/08/06 06:29:36;;;;;;;6.72;6.15;;;;;;;22.55;100.00;99587.97;4999204;28;20034;-82
2022/08/06 06:32:13;;;;;;;6.75;5.57;;;;;;;22.65;100.00;99593.66;5003511;28;20440;-82
2022/08/06 06:34:42;;;;;;;7.03;6.43;;;;;;;22.73;100.00;99588.06;5001176;28;20054;-82
2022/08/06 06:37:23;;;;;;;7.28;5.85;;;;;;;22.79;100.00;99595.25;5004263;28;20394;-83
2022/08/06 06:40:06;;;;;;;7.00;6.07;;;;;;;22.88;100.00;99587.69;4998861;28;20034;-83
2022/08/06 06:42:53;;;;;;;6.55;5.93;;;;;;;22.99;100.00;99587.78;5003341;28;20045;-82
2022/08/06 06:45:35;;;;;;;6.32;5.68;;;;;;;23.14;100.00;99604.41;5000239;28;20030;-83
2022/08/06 06:48:08;;;;;;;6.28;5.78;;;;;;;23.21;100.00;99607.00;5007513;28;20122;-83
2022/08/06 06:50:38;;;;;;;6.40;5.90;;;;;;;23.24;100.00;99603.91;5006599;28;20391;-83
2022/08/06 06:53:05;;;;;;;6.50;5.90;;;;;;;23.24;100.00;99598.50;5007787;28;20046;-83
2022/08/06 06:55:38;;;;;;;5.82;5.43;;;;;;;23.35;100.00;99605.00;5007045;28;20030;-82
2022/08/06 06:58:10;;;;;;;7.82;5.22;;;;;;;23.46;100.00;99596.19;5007038;28;20394;-84
2022/08/06 07:00:37;;;;;;;6.32;5.57;;;;;;;23.54;100.00;99607.53;5006174;28;20038;-84
2022/08/06 07:03:05;;;;;;;5.75;5.03;;;;;;;23.61;100.00;99597.50;5007820;28;20397;-82
2022/08/06 07:05:34;;;;;;;5.90;5.28;;;;;;;23.62;100.00;99587.53;5007206;28;20030;-83
2022/08/06 07:08:03;;;;;;;5.45;5.00;;;;;;;23.68;100.00;99592.81;5009645;28;20034;-83
2022/08/06 07:10:30;;;;;;;7.15;4.97;;;;;;;23.79;100.00;99583.19;5006927;28;20034;-83
2022/08/06 07:12:57;;;;;;;5.20;4.80;;;;;;;23.93;100.00;99592.72;5006681;28;20101;-82
2022/08/06 07:15:24;;;;;;;5.75;5.22;;;;;;;24.03;100.00;99592.97;5006009;28;20378;-84
2022/08/06 07:17:50;;;;;;;8.55;5.55;;;;;;;24.05;100.00;99596.28;5009453;28;20456;-84
2022/08/06 07:20:25;;;;;;;6.32;5.35;;;;;;;24.11;100.00;99596.41;5005323;28;20406;-84
2022/08/06 07:22:54;;;;;;;5.68;5.18;;;;;;;24.16;100.00;99591.16;5006501;28;20050;-83
2022/08/06 07:25:23;;;;;;;6.10;5.20;;;;;;;24.21;100.00;99588.63;5006649;28;20026;-83
2022/08/06 07:27:50;;;;;;;5.22;4.82;;;;;;;24.29;100.00;99591.81;5008423;28;20545;-83
2022/08/06 07:30:18;;;;;;;5.07;4.68;;;;;;;24.39;100.00;99596.63;5006364;28;20034;-82
2022/08/06 07:32:45;;;;;;;5.63;4.65;;;;;;;24.45;100.00;99601.09;5008647;28;20034;-83
2022/08/06 07:35:13;;;;;;;6.38;4.03;;;;;;;24.55;100.00;99600.56;5015747;28;20030;-83
2022/08/06 07:37:48;;;;;;;4.97;4.07;;;;;;;24.55;100.00;99601.38;5015122;28;20497;-83
2022/08/06 07:40:23;;;;;;;4.82;4.25;;;;;;;24.62;100.00;99606.66;5014851;28;20099;-83
2022/08/06 07:42:55;;;;;;;4.38;4.07;;;;;;;24.70;100.00;99598.22;5011357;28;20034;-84
2022/08/06 07:45:24;;;;;;;6.40;5.18;;;;;;;24.78;100.00;99604.09;5017094;28;20030;-83
2022/08/06 07:47:52;;;;;;;5.22;3.53;;;;;;;24.91;100.00;99599.56;5013895;28;20026;-83
2022/08/06 07:50:18;;;;;;;3.50;3.30;;;;;;;24.95;100.00;99600.72;5018263;28;20064;-82
2022/08/06 07:52:45;;;;;;;6.65;3.72;;;;;;;25.04;100.00;99593.91;5011204;28;20043;-83
2022/08/06 07:55:12;;;;;;;3.70;3.40;;;;;;;25.16;100.00;99592.03;5009618;28;20046;-83
2022/08/06 07:57:39;;;;;;;3.90;3.50;;;;;;;25.28;100.00;99596.34;5007691;28;20136;-83
2022/08/06 08:00:06;;;;;;;7.95;3.42;;;;;;;25.38;99.88;99593.06;5004218;28;20038;-83
2022/08/06 08:02:38;;;;;;;3.60;3.30;;;;;;;25.46;98.93;99587.28;5012506;28;20034;-83
2022/08/06 08:07:48;;;;;;;5.25;2.90;;;;;;;25.68;99.81;99595.63;5007921;28;20073;-83
2022/08/06 08:10:17;;;;;;;6.20;3.35;;;;;;;25.85;97.78;99606.47;5002938;28;20057;-83
2022/08/06 08:12:44;;;;;;;6.60;3.17;;;;;;;25.94;97.27;99603.16;5007427;28;20046;-84
2022/08/06 08:15:10;;;;;;;7.97;2.75;;;;;;;26.07;96.63;99599.34;5006604;28;20045;-84
2022/08/06 08:17:35;;;;;;;3.15;2.85;;;;;;;26.16;95.35;99592.44;5003670;28;20026;-84
2022/08/06 08:20:09;;;;;;;2.90;2.60;;;;;;;26.25;98.33;99601.88;5004997;28;20034;-83
2022/08/06 08:22:35;;;;;;;3.63;2.80;;;;;;;26.34;95.49;99597.69;5006541;28;20474;-84
2022/08/06 08:25:01;;;;;;;4.97;2.78;;;;;;;26.44;93.67;99592.47;5000746;28;20077;-83
2022/08/06 08:27:26;;;;;;;3.40;2.70;;;;;;;26.54;90.20;99594.50;5004014;28;20082;-84
2022/08/06 08:29:52;;;;;;;3.20;2.88;;;;;;;26.62;92.23;99586.00;5001573;28;20038;-83
2022/08/06 08:32:19;;;;;;;4.05;2.50;;;;;;;26.70;92.65;99576.63;5005790;28;20449;-82
2022/08/06 08:34:46;;;;;;;4.90;3.33;;;;;;;26.79;92.40;99580.56;5002317;28;20096;-82
2022/08/06 08:37:13;;;;;;;3.97;2.60;;;;;;;26.89;92.71;99583.44;5006112;28;20436;-83
2022/08/06 08:39:39;;;;;;;3.72;2.50;;;;;;;27.02;90.37;99574.97;5003502;28;20031;-82
2022/08/06 08:42:13;;;;;;;6.75;2.72;;;;;;;27.14;91.60;99581.13;5005082;28;20160;-83
2022/08/06 08:44:40;;;;;;;2.97;2.78;;;;;;;27.24;91.16;99580.44;5003481;28;20562;-82
2022/08/06 08:47:09;;;;;;;2.33;2.13;;;;;;;27.33;91.58;99580.81;5006483;28;20117;-82
2022/08/06 08:49:39;;;;;;;5.20;2.60;;;;;;;27.41;91.61;99588.50;5004610;28;20022;-84
2022/08/06 08:52:08;;;;;;;4.40;2.47;;;;;;;27.48;86.41;99583.72;5005395;28;20100;-82
2022/08/06 08:54:37;;;;;;;3.45;2.65;;;;;;;27.57;82.81;99588.47;5008444;28;20110;-82
2022/08/06 08:57:04;;;;;;;2.33;2.13;;;;;;;27.64;82.74;99585.56;5008773;28;20054;-84
2022/08/06 08:59:31;;;;;;;3.95;2.33;;;;;;;27.67;84.17;99585.06;5012913;28;20557;-82
2022/08/06 09:01:57;;;;;;;2.42;2.22;;;;;;;27.74;84.19;99593.84;5014268;28;20140;-84
2022/08/06 09:04:25;;;;;;;5.82;2.58;;;;;;;27.82;85.33;99587.94;5007320;28;20363;-83
2022/08/06 09:06:51;;;;;;;3.58;2.55;;;;;;;27.90;84.04;99587.50;5001931;28;20041;-84
2022/08/06 09:09:17;;;;;;;3.72;2.47;;;;;;;27.97;83.97;99588.13;5009072;28;20021;-83
2022/08/06 09:11:43;;;;;;;2.72;2.22;;;;;;;28.13;77.12;99591.00;5018056;28;20069;-82
2022/08/06 09:14:10;;;;;;;3.88;2.40;;;;;;;28.17;79.14;99584.81;5024107;28;20049;-84
2022/08/06 09:16:36;;;;;;;2.72;2.47;;;;;;;28.32;76.07;99586.88;5020311;28;20045;-84
2022/08/06 09:19:04;;;;;;;3.97;2.33;;;;;;;28.37;77.85;99579.59;5029515;28;20462;-81
2022/08/06 09:21:31;;;;;;;3.90;2.10;;;;;;;28.40;78.27;99580.97;5012785;28;20054;-83
2022/08/06 09:23:59;;;;;;;2.60;2.40;;;;;;;28.44;77.04;99584.81;5010101;28;20035;-83
2022/08/06 09:26:25;;;;;;;4.22;2.50;;;;;;;28.47;76.45;99587.81;5003740;28;20026;-83
2022/08/06 09:28:51;;;;;;;2.13;1.95;;;;;;;28.52;76.01;99584.31;5009777;28;20521;-82
2022/08/06 09:31:18;;;;;;;3.30;2.42;;;;;;;28.57;76.08;99587.06;5008698;28;20117;-84
2022/08/06 09:34:03;;;;;;;4.22;2.33;;;;;;;28.61;75.28;99587.38;5005145;28;20030;-82
2022/08/06 09:36:46;;;;;;;2.72;2.50;;;;;;;28.67;74.70;99586.34;5009687;28;20529;-83
2022/08/06 09:39:12;;;;;;;6.15;2.63;;;;;;;28.73;74.45;99586.16;5009103;28;20475;-83
2022/08/06 09:41:48;;;;;;;2.42;2.33;;;;;;;28.77;74.11;99576.41;5010048;28;20041;-83
2022/08/06 09:44:14;;;;;;;2.75;1.92;;;;;;;28.81;73.95;99576.69;5006589;28;20032;-82
2022/08/06 09:46:45;;;;;;;2.45;1.88;;;;;;;28.86;75.44;99572.09;5007991;28;20034;-83
2022/08/06 09:49:14;;;;;;;2.35;1.77;;;;;;;28.94;75.10;99570.00;5005829;28;20113;-83
2022/08/06 09:51:41;;;;;;;3.28;2.40;;;;;;;29.00;74.88;99566.22;5006498;28;20129;-82
2022/08/06 09:54:15;;;;;;;2.25;2.13;;;;;;;29.11;73.36;99570.63;5010943;28;20030;-83
2022/08/06 09:56:44;;;;;;;2.75;2.30;;;;;;;29.20;72.24;99564.44;5010017;28;20394;-80
2022/08/06 09:59:12;;;;;;;2.00;1.90;;;;;;;29.25;72.67;99566.38;5011891;28;20042;-84
2022/08/06 10:01:44;;;;;;;2.65;1.95;;;;;;;29.29;68.93;99556.59;5013958;28;20049;-82
2022/08/06 10:04:22;;;;;;;6.38;2.40;;;;;;;29.44;66.82;99562.16;5013783;28;20037;-82
2022/08/06 10:07:07;;;;;;;3.15;2.67;;;;;;;29.50;68.39;99558.38;5007340;28;20439;-83
2022/08/06 10:09:33;;;;;;;2.80;1.90;;;;;;;29.52;68.15;99556.19;5008789;28;20042;-83
2022/08/06 10:11:59;;;;;;;3.65;2.45;;;;;;;29.60;68.46;99563.84;5012051;28;20038;-83
2022/08/06 10:14:27;;;;;;;2.40;2.20;;;;;;;29.65;70.42;99555.69;5014377;28;20036;-84
2022/08/06 10:17:29;;;;;;;2.20;2.10;;;;;;;29.75;69.34;99548.66;5015280;28;20038;-84
2022/08/06 10:20:03;;;;;;;2.58;2.10;;;;;;;29.80;69.13;99554.13;4974746;28;20703;-84
2022/08/06 10:22:29;;;;;;;2.22;2.03;;;;;;;29.96;65.84;99550.38;4970065;28;20050;-84
2022/08/06 10:24:59;;;;;;;3.30;2.25;;;;;;;30.03;65.82;99540.84;4961221;28;20047;-84
2022/08/06 10:27:30;;;;;;;4.25;2.22;;;;;;;30.07;66.72;99549.28;4962061;28;20471;-84
2022/08/06 10:30:05;;;;;;;2.50;2.10;;;;;;;30.09;65.33;99549.84;4961287;28;20047;-84
2022/08/06 10:32:41;;;;;;;2.60;2.40;;;;;;;30.20;63.37;99540.59;4961988;28;20517;-85
2022/08/06 10:35:08;;;;;;;4.88;2.35;;;;;;;30.29;60.85;99549.03;4945932;28;20085;-84
2022/08/06 10:37:41;;;;;;;2.50;2.13;;;;;;;30.34;60.37;99540.84;4964102;28;20044;-83
2022/08/06 10:40:08;;;;;;;2.13;1.95;;;;;;;30.41;60.82;99536.78;4963099;28;20051;-84
2022/08/06 10:42:34;;;;;;;2.15;2.05;;;;;;;30.39;60.76;99533.53;4963502;28;20375;-84
2022/08/06 10:45:00;;;;;;;6.82;2.22;;;;;;;30.52;58.96;99527.53;4961625;28;20030;-84
2022/08/06 10:47:27;;;;;;;2.47;2.28;;;;;;;30.57;62.64;99525.94;4958530;28;20408;-84
2022/08/06 10:49:54;;;;;;;2.28;2.17;;;;;;;30.56;62.47;99527.00;4961285;28;20055;-85
2022/08/06 10:52:20;;;;;;;3.00;2.20;;;;;;;30.56;63.29;99527.84;4962871;28;20126;-86
2022/08/06 10:54:46;;;;;;;4.15;2.35;;;;;;;30.57;63.52;99529.47;4995344;28;20407;-86
2022/08/06 10:57:13;;;;;;;2.45;2.10;;;;;;;30.66;59.73;99527.00;5003627;28;20026;-86
2022/08/06 10:59:43;;;;;;;2.17;1.98;;;;;;;30.74;60.54;99521.00;5002004;28;20042;-86
2022/08/06 11:02:30;;;;;;;8.45;2.00;;;;;;;30.74;62.59;99524.53;5001724;28;20441;-86
2022/08/06 11:05:02;;;;;;;2.20;2.10;;;;;;;30.69;61.64;99515.56;4999348;28;20045;-85
2022/08/06 11:07:42;;;;;;;2.50;2.20;;;;;;;30.66;62.21;99510.66;5002391;28;20035;-86
2022/08/06 11:10:45;;;;;;;2.28;2.08;;;;;;;30.82;57.77;99509.53;5000211;28;20526;-87
2022/08/06 11:13:46;;;;;;;2.08;1.98;;;;;;;30.90;57.65;99511.69;5003207;28;20038;-86
2022/08/06 11:16:26;;;;;;;2.50;2.30;;;;;;;30.98;56.27;99513.84;5001338;28;20041;-86
2022/08/06 11:19:09;;;;;;;4.40;2.20;;;;;;;31.06;55.71;99507.03;5001716;28;20030;-86
2022/08/06 11:21:36;;;;;;;2.70;2.10;;;;;;;31.14;56.49;99501.84;4998125;28;20130;-86
2022/08/06 11:24:04;;;;;;;2.38;2.25;;;;;;;31.14;57.28;99501.84;5004027;28;20092;-85
2022/08/06 11:26:36;;;;;;;2.65;2.22;;;;;;;31.15;59.83;99499.94;5003444;28;20762;-86
2022/08/06 11:29:05;;;;;;;2.58;1.95;;;;;;;31.14;59.49;99501.00;5003802;28;20390;-86
2022/08/06 11:31:36;;;;;;;2.40;2.25;;;;;;;31.15;57.28;99498.03;5003714;28;20029;-86
2022/08/06 11:34:09;;;;;;;2.47;2.17;;;;;;;31.24;54.86;99485.44;5005909;28;20042;-86
2022/08/06 11:36:59;;;;;;;2.60;2.30;;;;;;;31.20;57.04;99487.09;5004809;28;20065;-86
2022/08/06 11:39:27;;;;;;;3.08;2.58;;;;;;;31.23;55.45;99482.97;5002216;28;20406;-86
2022/08/06 11:42:01;;;;;;;4.53;2.15;;;;;;;31.29;56.42;99474.50;5005909;28;20046;-86
2022/08/06 11:44:31;;;;;;;2.33;2.13;;;;;;;31.37;55.72;99466.81;5005198;28;20076;-86